Date,TemperatureHighF,TemperatureAvgF,TemperatureLowF,DewpointHighF,DewpointAvgF,DewpointLowF,HumidityHigh,HumidityAvg,HumidityLow,PressureMaxIn,PressureMinIn,WindSpeedMaxMPH,WindSpeedAvgMPH,GustSpeedMaxMPH,PrecipitationSumIn
2013-1-1,26.4,20.3,9.7,19.0,11.0,5.0,83,68,55,30.09,29.94,4,1,0,0.00
2013-1-2,24.6,21.1,15.5,18.0,14.3,9.0,81,75,69,30.12,30.00,7,1,0,0.00
2013-1-3,28.0,22.7,15.5,24.0,16.6,6.0,86,77,65,30.09,29.97,10,3,0,0.00
2013-1-4,31.1,26.7,23.2,23.0,19.1,18.0,82,73,62,30.10,29.93,18,6,0,0.00
2013-1-5,33.6,25.7,14.8,29.0,20.8,11.0,92,82,68,30.21,29.94,7,2,0,0.00
2013-1-6,34.5,32.7,30.7,32.0,28.7,25.0,92,85,75,30.18,29.82,10,2,0,0.00
2013-1-7,36.3,30.8,27.1,25.0,22.4,19.0,80,71,59,30.29,30.07,14,3,0,0.02
2013-1-8,35.7,29.5,22.5,25.0,22.7,19.0,86,76,65,30.17,30.07,10,1,0,0.01
2013-1-9,44.6,37.2,29.5,32.0,27.2,22.0,84,69,43,30.33,29.93,18,6,0,0.08
2013-1-10,42.3,32.2,22.5,32.0,25.3,20.0,90,77,53,30.51,30.11,10,2,0,0.03
2013-1-11,53.6,43.0,34.5,52.0,40.8,31.0,97,92,81,30.10,29.66,14,3,0,0.41
2013-1-12,60.8,49.8,44.2,49.0,45.2,41.0,94,85,55,29.84,29.72,10,2,0,0.00
2013-1-13,45.5,36.8,28.5,39.0,34.9,26.0,95,93,79,29.94,29.66,7,2,0,0.60
2013-1-14,27.9,22.4,15.6,24.0,16.3,12.0,86,77,68,30.37,29.95,13,3,0,0.00
2013-1-15,30.0,21.8,13.1,19.0,14.3,9.0,86,74,51,30.39,30.10,4,0,0,0.01
2013-1-16,37.3,27.9,18.5,27.0,17.4,11.0,88,68,34,30.08,29.72,13,4,0,0.00
2013-1-17,32.9,27.9,17.1,28.0,18.8,4.0,85,69,53,30.24,29.86,12,3,0,0.00
2013-1-18,34.1,23.8,11.8,21.0,13.5,6.0,83,66,46,30.37,29.88,14,3,0,0.00
2013-1-19,46.1,40.7,33.8,35.0,27.8,21.0,72,61,54,29.88,29.45,18,7,0,0.00
2013-1-20,42.9,20.8,14.3,33.0,7.5,2.0,79,57,37,30.12,29.43,28,8,0,0.01
2013-1-21,15.3,11.2,2.7,10.0,1.7,-8.0,82,66,50,30.09,29.90,13,3,0,0.00
2013-1-22,8.6,3.2,-2.6,-1.0,-7.3,-15.0,75,62,51,30.23,30.05,11,3,0,0.00
2013-1-23,16.4,9.0,-0.9,8.0,1.3,-7.0,81,71,56,30.23,30.03,12,2,0,0.00
2013-1-24,17.4,11.2,6.1,9.0,1.6,-6.0,82,66,39,30.54,30.06,10,1,0,0.00
2013-1-25,19.5,15.9,11.1,14.0,10.0,2.0,86,77,66,30.45,29.95,8,1,0,0.00
2013-1-26,26.8,20.0,12.1,16.0,13.0,8.0,86,75,55,30.39,29.98,6,1,0,0.01
2013-1-27,28.5,21.1,9.1,26.0,14.0,5.0,91,75,57,30.41,30.05,16,4,0,0.00
2013-1-28,44.2,36.1,28.9,43.0,34.9,27.0,97,95,91,30.06,29.76,12,3,0,0.12
2013-1-29,57.2,44.8,32.2,55.0,43.8,30.0,98,96,89,29.94,29.36,19,4,0,0.98
2013-1-30,59.0,48.9,31.7,56.0,46.9,27.0,97,93,84,29.35,29.00,16,4,0,0.50
2013-1-31,31.4,20.8,15.0,26.0,13.4,7.0,85,74,56,29.80,29.12,20,8,0,0.00